Meteo4 di Emilio Bellavite Il primo osservatorio Meteo di Verona  
 
lunedì 21 maggio 2018
 
 
dati in tempo reale
Di seguito i dati in tempo reale delle stazioni on line della rete di Meteo4. Cliccando sul link della stazione, ove presente, si accederà al sito web personale.
Stazioni online
Località Giorno Ora Temp. Umid. Relat. Dew Point Press. Atm. Velocità Vento Direz. Vento Precip. Temp.
Min
Temp.
Max
Abano (PD) 21/05/18 20.45 23.2 °C 51 % 12.5 °C 1009.9 hPa 0.0 Km/h --- 0.0 mm  16.1 °C 28.2 °C
Acquaviva delle Fonti (BA) 21/05/18 20.44 21.1 °C 79 % 17.3 °C 1012.5 hPa 0.0 Km/h NNE 0.0 mm  13.5 °C 24.8 °C
Ala (TN) 21/05/18 20.45 19.0 °C 70 % 13.4 °C 1011.9 hPa 0.0 Km/h ESE 0.6 mm  13.8 °C 24.7 °C
Alleghe (BL) 21/05/18 20.45 11.8 °C 73 % 7.1 °C 1002.9 hPa 0.0 Km/h E 1.0 mm  7.1 °C 18.9 °C
Alleghe Lago (BL) 21/05/18 20.45 11.8 °C 76 % 7.7 °C 1015.7 hPa 0.6 Km/h NE 1.0 mm  7.8 °C 18.5 °C
Ancona (AN) 19/05/18 20.00 19.6 °C 64 % 12.6 °C 1014.9 hPa 0.0 Km/h --- 0.0 mm  11.4 °C 22.9 °C
Ardea (RM) 21/05/18 20.44 19.4 °C 81 % 16.1 °C 1012.4 hPa 0.0 Km/h N 0.3 mm  16.9 °C 24.3 °C
Arenzano (GE) 21/05/18 20.45 18.8 °C 77 % 14.7 °C 1012.7 hPa 0.0 Km/h NE 0.0 mm  17.6 °C 23.9 °C
Arquà Polesine (RO) 21/05/18 20.45 20.1 °C 70 % 14.5 °C 1012.9 hPa 0.0 Km/h NE 0.0 mm  15.8 °C 28.6 °C
Arzignano loc. Castello (VI) 21/05/18 19.45 23.8 °C 47 % 11.8 °C 1010.5 hPa 0.0 Km/h --- 0.0 mm  17.0 °C 28.6 °C
Arzignano Pugnello (VI) 21/05/18 20.45 18.4 °C 64 % 11.7 °C 1009.9 hPa 3.0 Km/h W 0.0 mm  17.1 °C 25.6 °C
Arzignano San Bortolo (VI) 21/05/18 20.40 22.0 °C 49 % 10.8 °C 1009.4 hPa 0.0 Km/h N 0.0 mm  18.7 °C 25.4 °C
Arzignano Tezze (VI) 21/05/18 20.42 20.3 °C 65 % 13.5 °C 1011.1 hPa 0.0 Km/h E 0.0 mm  16.6 °C 27.2 °C
Asiago Rifugio Val Formica (VI) 21/05/18 20.39 7.2 °C 95 % 6.4 °C 1016.5 hPa 0.0 Km/h N 0.0 mm  7.2 °C 7.2 °C
Avenza-Carrara (MS) 21/05/18 20.40 17.3 °C 80 % 13.8 °C 1012.8 hPa 0.0 Km/h --- 6.1 mm  16.6 °C 28.9 °C
Avio (TN) 21/05/18 20.45 17.6 °C 83 % 14.7 °C 1012.0 hPa 0.0 Km/h S 1.7 mm  14.4 °C 25.9 °C
Badia Calavena loc. San Valentino (VR) 21/05/18 20.45 15.9 °C 62 % 8.7 °C 1010.1 hPa 0.0 Km/h ENE 0.0 mm  12.7 °C 19.8 °C
Barbara (AN) 21/05/18 20.45 17.5 °C 81 % 14.2 °C 1014.3 hPa 0.0 Km/h S 0.0 mm  14.9 °C 23.7 °C
Barcellona P.G. Centro (ME) 21/05/18 20.45 22.0 °C 75 % 17.4 °C 1012.0 hPa 0.0 Km/h SSW 0.0 mm  18.8 °C 27.2 °C
Barcellona Pozzo di Gotto (ME) 21/05/18 20.45 21.9 °C 75 % 17.3 °C 1011.8 hPa 0.0 Km/h N 0.0 mm  19.1 °C 26.6 °C
Bardolino (VR) 21/05/18 20.45 18.4 °C 76 % 13.9 °C 1005.8 hPa 0.0 Km/h SW 0.0 mm  16.6 °C 25.5 °C
Bassano del Grappa (VI) 21/05/18 20.20 21.2 °C 54 % 11.5 °C 999.1 hPa 6.4 Km/h ENE 2.8 mm  15.4 °C 27.7 °C
Bellaria Igea Marina (RN) 21/05/18 20.45 20.4 °C 75 % 15.9 °C 1011.0 hPa 0.0 Km/h SW 0.0 mm  15.0 °C 23.5 °C
Bellaria Igea Marina2 (RN) 21/05/18 20.45 20.7 °C 76 % 16.3 °C 1010.6 hPa 0.0 Km/h W 0.0 mm  15.1 °C 23.8 °C
Bellaria Igea Marina3 (RN) 20/05/18 22.51 17.8 °C 76 % 13.5 °C 1012.8 hPa 0.0 Km/h SW 0.0 mm  11.9 °C 24.8 °C
Belluno Castion (BL) 21/05/18 20.30 16.0 °C 77 % 12.0 °C 1012.5 hPa 0.0 Km/h WSW 0.2 mm  9.8 °C 24.0 °C
Bernate Ticino fraz. Casate (MI) 21/05/18 20.45 18.3 °C 70 % 12.8 °C 1010.4 hPa 0.0 Km/h S 0.0 mm  13.8 °C 23.6 °C
Besenello (TN) 21/05/18 20.45 17.3 °C 70 % 11.8 °C 1013.4 hPa 1.5 Km/h NNW 1.8 mm  13.9 °C 24.9 °C
Bientina (PI) 21/05/18 20.45 16.7 °C 92 % 15.4 °C 1008.9 hPa 1.1 Km/h NE 17.7 mm  14.3 °C 27.0 °C
Bisignano (CS) 21/05/18 20.45 21.5 °C 60 % 13.4 °C 1013.2 hPa 1.5 Km/h SE 0.0 mm  14.9 °C 27.1 °C
Bitti (NU) 21/05/18 20.45 14.8 °C 87 % 12.7 °C 1012.2 hPa 4.0 Km/h SW 6.2 mm  12.2 °C 15.9 °C
Bolognano di Arco (TN) 21/05/18 20.45 18.7 °C 69 % 12.9 °C 1012.2 hPa 0.0 Km/h E 7.8 mm  12.9 °C 24.8 °C
Bonorva (SS) 21/05/18 20.40 14.5 °C 94 % 13.5 °C 1010.7 hPa 4.8 Km/h SSW 3.8 mm  13.0 °C 17.5 °C
Borgo Valsugana (TN) 21/05/18 20.38 15.0 °C 79 % 11.4 °C 1014.8 hPa 1.8 Km/h SW 9.7 mm  12.6 °C 22.9 °C
Borore (NU) 21/05/18 20.45 14.2 °C 94 % 13.3 °C 1010.7 hPa 3.5 Km/h S 13.8 mm  12.9 °C 16.3 °C
Brebbia (VA) 21/05/18 18.20 21.5 °C 56 % 12.4 °C 1012.4 hPa 4.8 Km/h NNW 6.2 mm  13.6 °C 21.8 °C
Brendola (VI) 21/05/18 20.45 23.4 °C 52 % 13.0 °C 997.5 hPa 3.6 Km/h E 0.0 mm  18.2 °C 29.8 °C
Bresega (PD) 21/05/18 20.45 21.1 °C 66 % 14.4 °C 1011.2 hPa 0.0 Km/h S 0.0 mm  18.8 °C 27.4 °C
Brolo c/da Parrazzà (ME) 21/05/18 20.40 20.3 °C 79 % 16.5 °C 1012.5 hPa 5.0 Km/h ESE 0.0 mm  18.3 °C 24.9 °C
Brugine2 (PD) 21/05/18 20.38 20.6 °C 62 % 13.0 °C 1011.5 hPa 0.0 Km/h ENE 0.0 mm  15.9 °C 26.4 °C
Budoia (PN) 21/05/18 20.45 16.6 °C 82 % 13.5 °C 1012.0 hPa 14.5 Km/h NW 12.4 mm  0.0 °C 26.6 °C
Ca' Gallo (PU) 21/05/18 20.38 18.2 °C 88 % 16.2 °C 1008.0 hPa 0.0 Km/h N 1.0 mm  12.6 °C 25.4 °C
Calcinato (BS) 21/05/18 20.45 17.9 °C 74 % 13.2 °C 1014.6 hPa 0.0 Km/h NNE 0.0 mm  16.4 °C 26.4 °C
Calliano (TN) 21/05/18 20.45 17.7 °C 69 % 12.0 °C 1012.0 hPa 3.2 Km/h E 0.2 mm  12.8 °C 24.4 °C
Cammarata (AG) 21/05/18 20.45 16.8 °C 58 % 8.5 °C 1015.5 hPa 2.4 Km/h N 0.0 mm  13.8 °C 24.0 °C
Campoformido (UD) 21/05/18 20.44 22.3 °C 50 % 11.3 °C 1012.3 hPa 0.0 Km/h ENE 0.0 mm  16.1 °C 26.2 °C
Capodimonte (VT) 21/05/18 20.40 16.4 °C 95 % 15.6 °C 1012.2 hPa 0.0 Km/h N 6.2 mm  16.4 °C 22.1 °C
Caprarola Centro Storico (VT) 21/05/18 20.45 16.6 °C 92 % 15.3 °C 1011.0 hPa 1.9 Km/h S 0.5 mm  14.4 °C 22.3 °C
Carceri (PD) 21/05/18 20.42 22.0 °C 59 % 13.3 °C 1010.7 hPa 0.0 Km/h N 0.0 mm  18.5 °C 28.2 °C
Carmignano loc. Seano (PO) 18/05/18 20.05 22.9 °C 51 % 12.2 °C 1013.8 hPa 3.5 Km/h NE 0.0 mm  10.1 °C 25.8 °C
Carpi (MO) 21/05/18 20.45 19.0 °C 72 % 13.8 °C 1011.2 hPa 4.8 Km/h WNW 0.0 mm  14.6 °C 28.3 °C
Cartigliano (VI) 21/05/18 20.45 21.1 °C 56 % 11.9 °C 1011.0 hPa 0.2 Km/h NNE 0.0 mm  16.6 °C 28.7 °C
Cassano Magnago (VA) 21/05/18 20.38 18.7 °C 72 % 13.5 °C 1011.4 hPa 0.0 Km/h SE 0.5 mm  13.2 °C 24.4 °C
Castel d'Azzano (VR) 21/05/18 20.35 19.8 °C 69 % 13.9 °C 929.2 hPa 1.6 Km/h WSW 0.0 mm  17.7 °C 27.7 °C
Castelferro (AL) 21/05/18 20.45 16.4 °C 94 % 15.4 °C 1013.1 hPa 1.6 Km/h ESE 7.6 mm  13.2 °C 23.4 °C
Castelfranco Veneto (TV) 21/05/18 20.45 22.7 °C 56 % 13.5 °C 1011.8 hPa 0.0 Km/h --- 1.6 mm  15.7 °C 27.6 °C
Castelgomberto (VI) 21/05/18 20.45 22.3 °C 50 % 11.4 °C 1010.9 hPa 0.0 Km/h SE 0.0 mm  17.1 °C 26.6 °C
Castelnuovo V.C. (PI) 21/05/18 20.42 14.3 °C 94 % 13.4 °C 1010.4 hPa 0.0 Km/h NE 2.4 mm  13.6 °C 21.1 °C
Castiglione del Lago (PG) 21/05/18 20.40 16.6 °C 91 % 15.1 °C 1013.9 hPa 0.0 Km/h SE 2.2 mm  13.0 °C 25.7 °C
Cavaria con Premezzo (VA) 21/05/18 20.45 18.7 °C 73 % 13.9 °C 1011.5 hPa 1.0 Km/h SSE 0.6 mm  13.3 °C 22.6 °C
Cavazzale (VI) 14/05/18 21.45 15.1 °C 74 % 10.5 °C 1009.1 hPa 0.0 Km/h --- 0.0 mm  13.1 °C 21.8 °C
Cefalù (PA) 21/05/18 20.45 20.1 °C 81 % 16.7 °C 1008.6 hPa 0.0 Km/h WNW 0.0 mm  18.1 °C 24.7 °C
Cerea (VR) 21/05/18 20.00 21.1 °C 71 % 15.6 °C 1011.6 hPa 9.7 Km/h SW 3.3 mm  17.9 °C 28.9 °C
Cerea2 (VR) 21/05/18 20.30 20.9 °C 63 % 13.6 °C 1012.8 hPa 7.4 Km/h WSW 1.5 mm  18.0 °C 27.1 °C
Cima Grappa (TV) 21/05/18 20.46 8.4 °C 85 % 6.0 °C 1016.3 hPa 0.0 Km/h W 1.6 mm  5.8 °C 12.0 °C
Cismon del Grappa loc. Corlo (VI) 21/05/18 20.46 15.7 °C 75 % 11.3 °C 1015.2 hPa 5.8 Km/h NE 2.6 mm  12.4 °C 22.6 °C
Cittadella (PD) 21/05/18 20.45 23.3 °C 48 % 11.7 °C 1011.1 hPa 0.2 Km/h SE 0.0 mm  18.0 °C 28.1 °C
Civita Castellana (VT) 21/05/18 20.45 16.5 °C 85 % 14.0 °C 1011.9 hPa 3.7 Km/h NNW 0.5 mm  13.9 °C 23.2 °C
Codroipo (UD) 21/05/18 20.45 22.6 °C 52 % 12.2 °C 1011.9 hPa 0.0 Km/h NE 0.0 mm  16.4 °C 27.8 °C
Cogollo del Cengio (VI) 21/05/18 20.42 18.2 °C 71 % 12.9 °C 1012.1 hPa 9.8 Km/h W 3.4 mm  12.9 °C 24.6 °C
Colle del Piccolo San Bernardo La Thuile (AO) 21/05/18 20.45 3.7 °C 83 % 1.1 °C 1015.4 hPa 3.0 Km/h NE 0.2 mm  1.4 °C 6.0 °C
Cologna Veneta Sant'Andrea (VR) 21/05/18 20.45 21.4 °C 68 % 15.2 °C 1011.6 hPa 0.0 Km/h SW 0.0 mm  17.3 °C 27.9 °C
Colognola ai Colli (VR) 21/05/18 19.05 23.7 °C 53 % 13.5 °C 1011.4 hPa 1.6 Km/h N 0.0 mm  19.3 °C 27.3 °C
Contrada Dosso Gervasio (VR) 21/05/18 20.45 15.4 °C 67 % 8.9 °C 1011.3 hPa 2.0 Km/h N 0.0 mm  12.4 °C 20.8 °C
Cosseria Lidora (SV) 21/05/18 20.45 15.7 °C 79 % 12.0 °C 1012.5 hPa 0.0 Km/h --- 0.0 mm  12.7 °C 20.3 °C
Costa di Vittorio Veneto (TV) 21/05/18 20.40 20.4 °C 64 % 13.4 °C 1010.7 hPa 0.0 Km/h ENE 0.3 mm  16.5 °C 27.0 °C
Costa Volpino (BG) 21/05/18 20.39 15.7 °C 81 % 12.4 °C 1010.0 hPa 3.2 Km/h NW 32.8 mm  11.4 °C 21.8 °C
Crespano del Grappa2 (TV) 21/05/18 20.39 19.5 °C 56 % 10.5 °C 1009.0 hPa 7.4 Km/h NNW 4.6 mm  14.7 °C 25.4 °C
Dorno (PV) 21/05/18 20.44 16.3 °C 92 % 15.0 °C 1012.6 hPa 0.0 Km/h SSE 3.8 mm  14.9 °C 23.9 °C
Dossobuono (VR) 21/05/18 20.46 19.7 °C 69 % 13.9 °C 1013.4 hPa 8.0 Km/h W 0.0 mm  18.9 °C 27.1 °C
Erbezzo Passo Fittanze (VR) 21/05/18 20.42 10.3 °C 83 % 7.5 °C 1015.1 hPa 5.0 Km/h SE 5.3 mm  6.5 °C 12.8 °C
Falzè di Piave (TV) 21/05/18 20.45 20.2 °C 70 % 14.6 °C 1012.9 hPa 0.0 Km/h --- 0.0 mm  11.9 °C 26.9 °C
Farra di Soligo (TV) 21/05/18 20.46 19.3 °C 54 % 9.8 °C 1018.8 hPa 0.4 Km/h SSW 0.0 mm  16.4 °C 26.2 °C
Feltre Celarda (BL) 21/05/18 20.46 16.7 °C 72 % 11.6 °C 1011.1 hPa 0.0 Km/h SW 0.0 mm  10.9 °C 28.4 °C
Ferrara di M.B. (VR) 21/05/18 20.40 10.8 °C 79 % 7.3 °C 1009.4 hPa 0.0 Km/h N 1.4 mm  9.3 °C 15.9 °C
Filo di Argenta (FE) 21/05/18 20.45 21.4 °C 67 % 15.1 °C 1012.1 hPa 0.0 Km/h SE 0.0 mm  13.8 °C 26.4 °C
Fogliano Redipuglia (GO) 21/05/18 20.46 22.5 °C 52 % 12.2 °C 1011.9 hPa 15.5 Km/h E 0.0 mm  19.8 °C 28.9 °C
Foligno (PG) 21/05/18 20.40 17.1 °C 87 % 14.9 °C 1012.1 hPa 1.6 Km/h SE 5.1 mm  14.9 °C 26.3 °C
Fontanafredda (PN) 21/05/18 20.46 19.2 °C 66 % 12.7 °C 1011.4 hPa 5.8 Km/h NE 0.0 mm  18.2 °C 26.9 °C
Fumane Contrada La Ca (VR) 21/05/18 20.41 18.1 °C 63 % 10.9 °C 1016.1 hPa 6.4 Km/h SE 4.3 mm  16.1 °C 25.2 °C
Gaggiano (MI) 21/05/18 20.46 17.4 °C 82 % 14.3 °C 1012.1 hPa 10.7 Km/h SSE 0.0 mm  14.8 °C 25.3 °C
Gallio (VI) 21/05/18 20.40 11.4 °C 84 % 8.8 °C 1013.4 hPa 0.0 Km/h N 9.4 mm  8.2 °C 18.1 °C
Gardolo (TN) 21/05/18 20.46 19.3 °C 60 % 11.3 °C 1013.1 hPa 6.8 Km/h SSE 1.2 mm  12.4 °C 26.2 °C
Genova Albaro (GE) 21/05/18 20.45 19.4 °C 61 % 11.7 °C 1013.0 hPa 5.0 Km/h N 0.0 mm  0.0 °C 23.4 °C
Genova Erzelli (GE) 21/05/18 20.42 19.2 °C 76 % 14.9 °C 1011.7 hPa 0.0 Km/h SW 0.0 mm  16.4 °C 23.8 °C
Gorizia (GO) 21/05/18 20.46 22.5 °C 51 % 11.8 °C 1011.7 hPa 0.0 Km/h NE 0.0 mm  18.5 °C 26.7 °C
Iglesias (CI) 21/05/18 20.39 15.8 °C 85 % 13.3 °C 1013.1 hPa 0.0 Km/h W 15.7 mm  14.7 °C 17.8 °C
Isera loc. Reviano (TN) 21/05/18 20.46 18.6 °C 61 % 10.9 °C 1012.0 hPa 5.0 Km/h WSW 3.6 mm  12.4 °C 25.6 °C
Isola d'Elba Marina di Campo (LI) 21/05/18 20.45 17.9 °C 91 % 16.4 °C 801.1 hPa 0.0 Km/h SSE 4.3 mm  14.7 °C 22.1 °C
Lavis (TN) 21/05/18 20.40 19.2 °C 59 % 11.1 °C 1013.0 hPa 6.5 Km/h E 1.6 mm  13.3 °C 25.2 °C
Laxolo (BG) 21/05/18 20.48 16.6 °C 13 % -11.9 °C 1010.8 hPa 0.0 Km/h NNW 4.8 mm  11.9 °C 21.6 °C
Legnago (VR) 21/05/18 20.45 21.3 °C 68 % 15.2 °C 1011.6 hPa 0.0 Km/h W 0.0 mm  15.3 °C 27.1 °C
Loano (SV) 21/05/18 20.45 17.7 °C 89 % 15.9 °C 1012.5 hPa 6.0 Km/h N 3.4 mm  17.7 °C 26.2 °C
Lovere (BG) 21/05/18 20.42 18.5 °C 50 % 0.0 °C 1013.1 hPa 3.5 Km/h WSW 2.0 mm  13.8 °C 23.9 °C
Lugagnano (VR) 21/05/18 20.45 19.8 °C 70 % 13.9 °C 1010.8 hPa 4.8 Km/h NNW 0.0 mm  18.6 °C 26.9 °C
Lusiana Sciessere (VI) 21/05/18 20.41 15.8 °C 66 % 9.5 °C 1015.5 hPa 4.7 Km/h NNW 0.0 mm  12.9 °C 21.7 °C
Magnano (BI) 21/05/18 20.45 16.8 °C 85 % 14.3 °C 1020.8 hPa 0.0 Km/h W 4.2 mm  11.7 °C 21.1 °C
Malga Malera (VR) 21/05/18 20.06 9.7 °C  %  °C  hPa 0.0 Km/h 0.0 mm   °C  °C
Malnate San Salvatore (VA) 21/05/18 20.30 18.8 °C 75 % 14.3 °C 1012.8 hPa 0.0 Km/h --- 0.3 mm  13.2 °C 21.8 °C
Marano Vicentino2 (VI) 21/05/18 20.45 21.3 °C 58 % 12.7 °C 1011.4 hPa 0.0 Km/h E 0.5 mm  15.8 °C 25.6 °C
Margone (TN) 21/05/18 20.45 13.7 °C 71 % 8.6 °C 1015.3 hPa 4.3 Km/h NNW 0.4 mm  8.7 °C 19.1 °C
Marina di Montemarciano (AN) 21/05/18 20.45 20.7 °C 75 % 16.1 °C 1011.6 hPa 0.0 Km/h --- 0.0 mm  15.4 °C 24.3 °C
Marostica Valle San Floriano (VI) 21/05/18 20.46 20.9 °C 52 % 10.6 °C 1012.9 hPa 2.0 Km/h NNW 3.8 mm  14.9 °C 26.1 °C
Marta (VT) 21/05/18 20.45 16.4 °C 90 % 14.8 °C 1010.2 hPa 1.9 Km/h E 19.2 mm  16.4 °C 21.9 °C
Masiera di Bagnacavallo (RA) 21/05/18 20.45 21.1 °C 71 % 15.6 °C 1008.4 hPa 0.2 Km/h --- 0.0 mm  15.0 °C 25.9 °C
Massarosa (LU) 21/05/18 20.45 16.4 °C 88 % 14.4 °C 999.2 hPa 2.5 Km/h NE 9.0 mm  14.6 °C 28.1 °C
Massone di Arco (TN) 21/05/18 20.46 20.0 °C 56 % 11.0 °C 1011.6 hPa 4.0 Km/h NE 10.6 mm  13.6 °C 24.9 °C
Merlara (PD) 21/05/18 20.45 20.5 °C 72 % 15.3 °C 1010.5 hPa 0.0 Km/h --- 0.0 mm  16.6 °C 26.6 °C
Mezzana Bigli (PV) 21/05/18 20.45 15.8 °C 93 % 14.6 °C 1011.6 hPa 0.0 Km/h NE 33.8 mm  12.9 °C 25.1 °C
Migliarino (FE) 21/05/18 20.46 22.3 °C 59 % 13.9 °C 1010.2 hPa 0.0 Km/h SE 0.0 mm  15.8 °C 27.9 °C
Miglionico (MT) 21/05/18 20.50 18.2 °C 70 % 12.7 °C 1010.3 hPa 0.0 Km/h --- 1.2 mm  13.6 °C 24.7 °C
Miola di Piné (TN) 21/05/18 20.45 13.4 °C 74 % 8.9 °C 1014.1 hPa 6.4 Km/h ENE 5.1 mm  8.6 °C 19.2 °C
Mirabella Imbaccari (CT) 21/05/18 20.48 19.8 °C 60 % 11.8 °C 1011.4 hPa 5.6 Km/h NE 0.0 mm  14.4 °C 26.6 °C
Mizzole (VR) 21/05/18 20.46 20.4 °C 68 % 14.3 °C 1012.4 hPa 1.4 Km/h SE 0.0 mm  19.1 °C 28.3 °C
Molina (VR) 21/05/18 20.41 15.6 °C 64 % 8.8 °C 1015.5 hPa 3.7 Km/h NE 0.0 mm  12.5 °C 22.0 °C
Monasterolo Torinese (TO) 21/05/18 20.45 16.4 °C 68 % 10.5 °C 1009.1 hPa 0.0 Km/h --- 7.1 mm  11.9 °C 21.4 °C
Moneglia loc. Casale (GE) 21/05/18 20.45 18.4 °C 65 % 11.7 °C 1012.4 hPa 0.0 Km/h NW 0.8 mm  17.5 °C 24.4 °C
Moneglia loc. La Secca (GE) 21/05/18 20.46 20.3 °C 67 % 14.0 °C 1010.6 hPa 0.0 Km/h WSW 2.2 mm  18.9 °C 26.9 °C
Mongrando San Michele (BI) 21/05/18 20.40 14.4 °C 92 % 13.1 °C 1012.3 hPa 0.0 Km/h --- 12.0 mm  11.9 °C 22.2 °C
Monselice (PD) 21/05/18 20.45 23.5 °C 45 % 10.9 °C 1012.5 hPa 0.0 Km/h S 0.0 mm  19.0 °C 28.1 °C
Montebello Vicentino loc. Selva (VI) 21/05/18 20.46 21.4 °C 31 % 3.6 °C 1012.9 hPa 0.0 Km/h ENE 0.0 mm  18.2 °C 26.1 °C
Montecchio Maggiore Sant'Urbano (VI) 21/05/18 20.42 21.1 °C 42 % 7.6 °C 1015.8 hPa 2.1 Km/h E 0.0 mm  17.4 °C 25.7 °C
Montelabbate (PU) 21/05/18 20.43 19.8 °C 76 % 15.4 °C 1006.7 hPa 0.0 Km/h SE 0.0 mm  13.8 °C 23.8 °C
Montespertoli (FI) 21/05/18 20.40 16.8 °C 97 % 16.3 °C 1013.8 hPa 2.9 Km/h SW 1.8 mm  15.4 °C 26.5 °C
Montopoli in val d'Arno Loc. Capanne (PI) 21/05/18 20.35 17.3 °C 89 % 15.5 °C 1011.1 hPa 2.4 Km/h NE 13.2 mm  12.3 °C 27.3 °C
Montorio (VR) 21/05/18 20.41 20.9 °C 64 % 13.8 °C 1014.4 hPa 10.1 Km/h WSW 0.0 mm  20.4 °C 26.8 °C
Montorso Vicentino (VI) 21/05/18 20.46 20.1 °C 56 % 11.0 °C 1011.6 hPa 0.0 Km/h SE 0.0 mm  16.3 °C 25.3 °C
Nichelino (TO) 21/05/18 20.40 19.5 °C 62 % 12.0 °C 1013.3 hPa 1.6 Km/h SSE 0.8 mm  15.1 °C 21.7 °C
Novara (NO) 21/05/18 20.40 19.8 °C 66 % 13.2 °C 1012.1 hPa 1.6 Km/h SSE 8.6 mm  13.7 °C 25.3 °C
Onara extraurbana (PD) 19/05/18 21.33 20.1 °C 63 % 12.8 °C 1012.5 hPa 0.0 Km/h W 0.0 mm  11.9 °C 26.0 °C
Oppeano (VR) 16/05/18 20.50 17.7 °C 69 % 12.0 °C 1009.5 hPa 0.0 Km/h E 0.0 mm  8.8 °C 22.8 °C
Oristano (OR) 21/05/18 20.45 16.9 °C 90 % 15.2 °C 1010.6 hPa 0.4 Km/h W 12.4 mm  15.5 °C 19.9 °C
Orosei (NU) 21/05/18 20.48 17.4 °C 88 % 15.4 °C 1010.9 hPa 1.6 Km/h SSE 3.2 mm  15.7 °C 19.3 °C
Ortonovo (SP) 21/05/18 20.46 15.5 °C 84 % 12.8 °C 1010.8 hPa 16.2 Km/h NE 5.7 mm  15.1 °C 27.9 °C
Orvieto (TR) 21/05/18 20.31 16.0 °C 90 % 14.4 °C 1010.5 hPa 0.0 Km/h S 20.7 mm  13.6 °C 24.5 °C
Ostana (CN) 20/05/18 10.33 0.0 °C 0 % -2.4 °C 1010.8 hPa 0.0 Km/h --- 0.0 mm  5.5 °C 5.5 °C
Ovaro loc. Liariis (UD) 21/05/18 20.35 14.3 °C 83 % 11.4 °C 1014.5 hPa 0.0 Km/h NE 0.2 mm  9.3 °C 22.8 °C
Pace del Mela (ME) 21/05/18 20.46 19.2 °C 82 % 16.1 °C 1013.5 hPa 0.2 Km/h SW 0.0 mm  16.6 °C 28.6 °C
Padergnone (TN) 21/05/18 20.45 18.8 °C 68 % 12.7 °C 1013.0 hPa 0.4 Km/h NNE 0.2 mm  13.1 °C 25.1 °C
Parella (TO) 21/05/18 20.41 19.5 °C 64 % 12.5 °C 1010.4 hPa 1.6 Km/h NW 0.8 mm  13.2 °C 22.3 °C
Pastrengo (VR) 21/05/18 20.41 19.5 °C 65 % 12.7 °C 1015.1 hPa 2.4 Km/h SW 0.0 mm  16.2 °C 26.9 °C
Pastrengo Corné (VR) 21/05/18 20.47 18.1 °C 77 % 14.0 °C 1011.0 hPa 3.2 Km/h WSW 0.0 mm  15.5 °C 26.6 °C
Pecetto Torinese (TO) 21/05/18 20.42 17.2 °C 77 % 13.2 °C 1012.1 hPa 1.6 Km/h NNW 1.5 mm  13.3 °C 21.8 °C
Pedemonte (VR) 21/05/18 20.45 20.8 °C 60 % 12.8 °C 1011.8 hPa 0.0 Km/h WNW 0.0 mm  19.3 °C 28.5 °C
Perarolo di Arcugnano (VI) 21/05/18 20.46 20.1 °C 60 % 12.1 °C 982.7 hPa 0.0 Km/h ESE 0.0 mm  -20.1 °C 26.9 °C
Peschiera del Garda (VR) 21/05/18 20.45 17.6 °C 84 % 14.8 °C 1012.8 hPa 6.4 Km/h NW 0.3 mm  16.9 °C 24.8 °C
Pian di Castagné (VR) 20/05/18 19.35 20.7 °C 52 % 10.4 °C 1014.1 hPa 14.5 Km/h ESE 0.0 mm  16.5 °C 22.4 °C
Pian di Castagné2 (VR) 21/05/18 20.41 17.9 °C 75 % 13.4 °C 1014.4 hPa 0.6 Km/h NNW 0.0 mm  15.8 °C 24.5 °C
Pila Valsesia (VC) 21/05/18 20.40 12.9 °C 89 % 11.2 °C 1011.3 hPa 0.0 Km/h W 26.0 mm  9.5 °C 20.2 °C
Piovà Massaia (AT) 21/05/18 20.45 18.2 °C 87 % 16.0 °C 1011.5 hPa 4.7 Km/h E 5.6 mm  13.1 °C 20.4 °C
Piraino contr. Fiumara (ME) 21/05/18 20.45 19.6 °C 85 % 17.0 °C 1012.4 hPa 3.0 Km/h SW 0.0 mm  16.2 °C 25.9 °C
Pisa zona I Passi (PI) 21/05/18 20.46 17.7 °C 71 % 12.4 °C 1012.3 hPa 9.4 Km/h NW 5.1 mm  14.8 °C 26.9 °C
Pomezia (RM) 21/05/18 20.46 18.6 °C 84 % 15.9 °C 1010.6 hPa 0.0 Km/h W 0.0 mm  16.7 °C 22.3 °C
Ponte San Nicolò (PD) 21/05/18 20.40 23.7 °C 49 % 12.3 °C 1011.1 hPa 3.2 Km/h E 0.0 mm  18.4 °C 27.6 °C
Ponte San Pellegrino (MO) 21/05/18 20.45 18.7 °C 75 % 14.2 °C 1014.8 hPa 8.6 Km/h W 0.0 mm  18.7 °C 19.7 °C
Pordenone (PN) 21/05/18 20.40 24.2 °C 45 % 11.5 °C 1011.7 hPa 3.2 Km/h WSW 0.0 mm  16.4 °C 28.0 °C
Pozzolo Formigaro (AL) 21/05/18 20.45 16.3 °C 92 % 15.0 °C 1013.8 hPa 0.0 Km/h NNW 3.8 mm  10.6 °C 22.9 °C
Pray (BI) 21/05/18 20.45 16.3 °C 81 % 13.0 °C 1012.4 hPa 2.0 Km/h N 6.8 mm  11.9 °C 22.1 °C
Reggello (FI) 21/05/18 20.46 14.9 °C 91 % 13.4 °C 1014.3 hPa 1.6 Km/h E 8.8 mm  13.8 °C 22.3 °C
Riccione (RN) 21/05/18 20.30 21.5 °C 76 % 17.1 °C 1009.9 hPa 0.0 Km/h ENE 7.1 mm  17.3 °C 23.7 °C
Rifugio Bocca di Selva (VR) 21/05/18 20.46 10.0 °C 85 % 7.6 °C 1014.2 hPa 4.8 Km/h E 0.0 mm  -17.8 °C 12.9 °C
Rifugio Primaneve (VR) 21/05/18 20.43 8.2 °C 91 % 6.8 °C 1014.8 hPa 9.7 Km/h E 1.3 mm  5.3 °C 10.6 °C
Rimini (RN) 21/05/18 20.30 21.6 °C 69 % 15.6 °C 1011.7 hPa 0.0 Km/h W 0.0 mm  16.6 °C 23.7 °C
Rimini Zona Palas (RN) 21/05/18 20.34 20.8 °C 74 % 16.1 °C 1012.1 hPa 1.6 Km/h SW 0.0 mm  16.7 °C 23.1 °C
Rivalta sul Mincio (MN) 21/05/18 20.48 18.6 °C 74 % 13.9 °C 1011.8 hPa 1.5 Km/h W 0.0 mm  14.3 °C 27.2 °C
Romano d'Ezzelino Fellette (VI) 21/05/18 20.45 20.9 °C 54 % 11.2 °C 1014.7 hPa 11.9 Km/h WNW 3.6 mm  14.1 °C 25.4 °C
Ronciglione Centro (VT) 21/05/18 20.45 16.4 °C 79 % 12.7 °C 1014.0 hPa 0.0 Km/h SSE 0.4 mm  15.2 °C 23.3 °C
Ronciglione - Ponte Cuzzoli (VT) 21/05/18 20.45 16.4 °C 86 % 14.0 °C 1011.5 hPa 0.0 Km/h ESE 0.4 mm  13.6 °C 22.4 °C
Rosolina (RO) 21/05/18 20.40 22.5 °C 55 % 13.0 °C 1011.7 hPa 3.2 Km/h WNW 0.0 mm  18.7 °C 27.5 °C
S. Giovanni Ilarione2 (VR) 21/05/18 20.45 19.4 °C 61 % 11.7 °C 1011.1 hPa 3.2 Km/h WNW 1.6 mm  15.9 °C 26.4 °C
S. Giovanni Lupatoto (VR) 21/05/18 20.40 21.2 °C 67 % 14.8 °C 1012.0 hPa 1.6 Km/h NNW 0.0 mm  18.2 °C 28.9 °C
S. Giovanni Rotondo (FG) 21/05/18 20.45 18.6 °C 71 % 13.2 °C 1011.8 hPa 0.0 Km/h SSW 0.0 mm  15.5 °C 24.2 °C
S. Lorenzo di Vittorio Veneto (TV) 21/05/18 20.45 20.9 °C 56 % 11.8 °C 1012.7 hPa 1.6 Km/h NNW 0.0 mm  15.8 °C 24.6 °C
S. Lorenzo Nuovo (VT) 21/05/18 20.45 14.2 °C 68 % 8.4 °C 1010.9 hPa 4.0 Km/h NNW 4.2 mm  14.1 °C 20.8 °C
S. Maria di Zevio Loc. 3 Ponti (VR) 21/05/18 20.45 22.0 °C 72 % 16.7 °C 1013.4 hPa 3.0 Km/h SW 0.0 mm  17.7 °C 27.1 °C
S. Maria Maddalena (RO) 21/05/18 20.40 21.2 °C 72 % 16.1 °C 1010.7 hPa 4.8 Km/h WSW 0.0 mm  16.2 °C 27.5 °C
S. Martino Lupari (PD) 18/05/18 08.05 15.9 °C 90 % 14.3 °C 910.1 hPa 0.0 Km/h --- 0.2 mm  12.4 °C 16.2 °C
S. Rocco di Villabalzana (VI) 21/05/18 20.48 21.7 °C 52 % 11.1 °C 1011.3 hPa 6.5 Km/h SE 0.0 mm  16.4 °C 27.1 °C
Sacile (PN) 21/05/18 20.40 22.2 °C 45 % 9.7 °C 1011.7 hPa 4.8 Km/h NNE 0.0 mm  19.7 °C 27.2 °C
Salcedo (VI) 21/05/18 20.45 19.6 °C 51 % 9.2 °C 1012.9 hPa 7.2 Km/h N 0.0 mm  16.6 °C 23.7 °C
San Benedetto del Tronto (AP) 21/05/18 18.01 22.7 °C 65 % 15.8 °C 1011.5 hPa 5.6 Km/h W 0.0 mm  18.3 °C 23.5 °C
San Cataldo (CL) 21/05/18 20.46 0.0 °C 100 % 0.0 °C 1012.2 hPa 0.0 Km/h NNW 0.0 mm  0.0 °C 0.0 °C
San Giovanni la Punta Trappeto (CT) 21/05/18 20.45 19.4 °C 73 % 14.4 °C 1013.1 hPa 3.2 Km/h NE 0.0 mm  15.4 °C 26.0 °C
San Nazario (VI) 21/05/18 20.36 19.0 °C 65 % 12.3 °C 1011.7 hPa 7.2 Km/h NW 6.1 mm  14.5 °C 27.5 °C
San Pietro di Rosà (VI) 21/05/18 20.46 20.8 °C 57 % 12.0 °C 1015.2 hPa 6.5 Km/h N 0.0 mm  16.7 °C 27.6 °C
San Potito Lugo (RA) 21/05/18 16.05 25.5 °C 45 % 12.7 °C 1014.7 hPa 0.0 Km/h NW 0.0 mm  14.4 °C 30.7 °C
San Salvo3 (CH) 21/05/18 20.46 17.7 °C 91 % 16.2 °C 1009.2 hPa 0.0 Km/h NE 1.6 mm  14.8 °C 24.2 °C
San Vito (CA) 21/05/18 20.46 17.1 °C 88 % 15.1 °C 1004.3 hPa 0.0 Km/h NNE 0.0 mm  15.2 °C 19.5 °C
San Zeno di Mont. Loc. Castello (VR) 21/05/18 20.46 16.3 °C 68 % 10.6 °C 1011.6 hPa 5.0 Km/h SE 0.0 mm  13.7 °C 21.1 °C
Santa Maria di Negrar (VR) 21/05/18 20.39 20.5 °C 56 % 11.4 °C 1013.8 hPa 1.1 Km/h WSW 0.0 mm  19.4 °C 27.7 °C
Sarcedo (VI) 21/05/18 20.45 21.9 °C 53 % 11.9 °C 1010.8 hPa 3.6 Km/h NNE 0.6 mm  15.9 °C 26.8 °C
Savelli (KR) 21/05/18 20.46 16.5 °C 70 % 11.0 °C 1013.3 hPa 0.6 Km/h ESE 0.0 mm  14.0 °C 19.8 °C
Schio (VI) 21/05/18 20.30 20.9 °C 64 % 13.8 °C 1013.2 hPa 0.0 Km/h NW 0.2 mm  15.7 °C 26.9 °C
Schio Monte Magré (VI) 21/05/18 20.46 17.3 °C 74 % 12.6 °C 0.0 hPa 3.2 Km/h W 0.4 mm  13.8 °C 25.1 °C
Selva di Progno (VR) 18/05/18 16.10 11.3 °C 88 % 9.4 °C 1017.2 hPa 3.2 Km/h NE 10.7 mm  -573.3 °C 17.5 °C
Seremange Erzange (Moselle) 21/05/18 20.45 20.7 °C 69 % 14.8 °C 1011.6 hPa 0.0 Km/h SW 0.2 mm  11.5 °C 24.5 °C
Sinnai (CA) 21/05/18 20.40 16.8 °C 92 % 15.5 °C 1011.9 hPa 0.0 Km/h SE 16.8 mm  15.6 °C 17.7 °C
Soave Borgo Bassano (VR) 21/05/18 20.45 22.0 °C 63 % 14.6 °C 1012.0 hPa 3.0 Km/h WSW 0.0 mm  19.9 °C 27.5 °C
Sona Loc. La Colombara (VR) 21/05/18 20.00 19.8 °C 66 % 12.8 °C 1008.4 hPa 5.0 Km/h S 0.0 mm  14.9 °C 26.3 °C
Soriso (NO) 21/05/18 20.40 18.0 °C 78 % 14.1 °C 1012.7 hPa 0.0 Km/h NNE 10.4 mm  12.3 °C 21.3 °C
Staranzano (GO) 21/05/18 20.40 22.6 °C 57 % 13.7 °C 1012.4 hPa 1.6 Km/h E 0.3 mm  19.9 °C 27.2 °C
Stiore - Monteveglio (BO) 21/05/18 20.46 16.4 °C 91 % 15.0 °C 1008.4 hPa 0.0 Km/h NNW 8.4 mm  13.5 °C 24.2 °C
Taio Mollaro (TN) 21/05/18 20.45 18.6 °C 60 % 10.7 °C 1015.2 hPa 0.0 Km/h ENE 0.2 mm  11.2 °C 25.3 °C
Tombolo (PD) 21/05/18 20.46 23.1 °C 51 % 12.4 °C 1012.1 hPa 0.0 Km/h SSE 0.0 mm  16.9 °C 27.3 °C
Torino Regio Parco (TO) 21/05/18 20.44 20.8 °C 64 % 13.7 °C 1014.2 hPa 2.6 Km/h SSW 3.6 mm  14.8 °C 22.4 °C
Torre Annunziata (NA) 21/05/18 20.45 21.6 °C 74 % 16.7 °C 1011.9 hPa 0.0 Km/h NW 0.0 mm  20.2 °C 24.9 °C
Torremaggiore (FG) 21/05/18 20.46 19.1 °C 79 % 15.4 °C 1010.8 hPa 0.0 Km/h ESE 0.6 mm  15.4 °C 26.9 °C
Torri (FI) 21/05/18 20.30 15.3 °C 96 % 14.6 °C 1011.2 hPa 0.0 Km/h --- 6.8 mm  12.6 °C 25.0 °C
Torrita di Siena (SI) 21/05/18 20.45 16.5 °C 88 % 14.5 °C 1012.4 hPa 0.0 Km/h --- 0.8 mm  12.5 °C 26.7 °C
Tregnago Loc. Centro (VR) 21/05/18 20.45 18.2 °C 58 % 9.8 °C 1006.1 hPa 4.8 Km/h E 0.0 mm  15.5 °C 23.6 °C
Trento (TN) 21/05/18 20.46 18.7 °C 66 % 12.2 °C 1012.2 hPa 8.0 Km/h ENE 1.0 mm  13.9 °C 25.7 °C
Treviso (TV) 21/05/18 20.46 22.0 °C 49 % 10.8 °C 1012.0 hPa 0.0 Km/h S 0.0 mm  16.6 °C 28.3 °C
Val Lastaro (VI) 17/05/18 07.29 7.8 °C 92 % 6.7 °C 1015.0 hPa 0.0 Km/h WNW 0.2 mm  6.8 °C 7.8 °C
Valdagno (VI) 21/05/18 20.46 19.0 °C 61 % 11.3 °C 1001.2 hPa 6.1 Km/h W 0.0 mm  15.3 °C 26.1 °C
Valdobbiadene San Pietro di Barbozza (TV) 21/05/18 20.50 19.6 °C 56 % 10.5 °C 1011.3 hPa 6.4 Km/h N 0.0 mm  16.3 °C 23.0 °C
Valentano (VT) 21/05/18 20.46 15.0 °C 91 % 13.3 °C 1010.0 hPa 0.0 Km/h SE 2.8 mm  14.6 °C 20.2 °C
Valenza (AL) 21/05/18 20.40 15.4 °C 92 % 14.2 °C 1012.1 hPa 3.2 Km/h E 9.7 mm  13.4 °C 22.7 °C
Valli del Pasubio loc. Gisbenti (VI) 21/05/18 20.46 16.5 °C 39 % 2.5 °C 970.0 hPa 0.9 Km/h --- 1.0 mm  12.9 °C 23.8 °C
Varese Ligure (SP) 21/05/18 20.45 17.2 °C 10 % -14.7 °C 1020.1 hPa 4.0 Km/h NO 0.0 mm  12.7 °C 22.2 °C
Vasto (CH) 21/05/18 20.46 19.3 °C 10 % -13.1 °C 1010.3 hPa 4.4 Km/h SW 0.3 mm  15.1 °C 23.5 °C
Vattaro fraz. Pian dei Pradi (TN) 21/05/18 20.45 13.1 °C 82 % 10.1 °C 1015.0 hPa 3.2 Km/h WSW 2.4 mm  9.3 °C 19.4 °C
Vazzo Roveré Veronese (VR) 21/05/18 20.45 14.8 °C 63 % 7.9 °C 1010.0 hPa 0.0 Km/h ENE 1.0 mm  11.2 °C 20.2 °C
Verona Bgo Venezia (iz3sly) (VR) 21/05/18 20.41 20.6 °C 66 % 14.0 °C 1010.7 hPa 1.6 Km/h NW 0.0 mm  18.6 °C 27.3 °C
Verona Cadidavid2 (VR) 21/05/18 20.36 19.8 °C 65 % 13.0 °C 1011.1 hPa 4.3 Km/h W 0.0 mm  16.8 °C 27.0 °C
Verona Saval3 (VR) 21/05/18 20.42 20.7 °C 63 % 13.4 °C 1012.8 hPa 4.0 Km/h ESE 0.0 mm  20.0 °C 28.0 °C
Vicenza Campedello (VI) 21/05/18 20.53 19.7 °C 70 % 13.9 °C 1012.5 hPa 0.0 Km/h SSE 0.0 mm  16.6 °C 28.1 °C
Vicenza Moracchino (VI) 21/05/18 20.46 23.2 °C 45 % 10.6 °C 1010.8 hPa 0.0 Km/h SSE 0.0 mm  17.0 °C 26.5 °C
Vicenza S. Lazzaro (VI) 21/05/18 20.46 23.7 °C 48 % 12.2 °C 1010.7 hPa 0.0 Km/h SE 0.0 mm  23.7 °C 23.8 °C
Vicenza San Bortolo (VI) 17/05/18 00.39 13.8 °C 89 % 12.0 °C 1015.3 hPa 0.0 Km/h NNE 0.0 mm  13.7 °C 14.1 °C
Vicenza San Gaetano (VI) 21/05/18 20.46 22.7 °C 55 % 13.2 °C 1011.5 hPa 0.0 Km/h W 0.0 mm  17.2 °C 27.7 °C
Vieste (FG) 21/05/18 20.45 21.8 °C 69 % 15.8 °C 1013.4 hPa 6.1 Km/h NW 0.0 mm  17.6 °C 23.3 °C
Vigevano (PV) 21/05/18 20.48 18.0 °C 82 % 14.9 °C 997.7 hPa 8.6 Km/h S 0.3 mm  -8.4 °C 24.8 °C
Villabartolomea (VR) 21/05/18 05.45 17.2 °C 71 % 11.7 °C 1013.4 hPa 8.0 Km/h NE 0.0 mm  17.0 °C 18.6 °C
Viozene Toria (CN) 21/05/18 20.45 11.2 °C 59 % 3.5 °C 1019.2 hPa 2.0 Km/h W 0.0 mm  6.2 °C 16.7 °C
Viterbo Santa Barbara (VT) 21/05/18 20.46 16.6 °C 90 % 14.9 °C 1010.9 hPa 0.0 Km/h WSW 4.8 mm  14.0 °C 21.7 °C
Viterbo Strada Bagni (VT) 21/05/18 20.46 17.2 °C 91 % 15.6 °C 1010.9 hPa 0.0 Km/h WNW 2.6 mm  14.5 °C 22.8 °C
Vitorchiano Pallone (VT) 21/05/18 18.30 18.9 °C 79 % 15.2 °C 1009.8 hPa 4.8 Km/h NW 0.5 mm  14.4 °C 22.6 °C
Vittorio Veneto (TV) 15/05/18 12.55 12.9 °C 87 % 10.8 °C 1010.4 hPa 0.0 Km/h SSE 10.4 mm  11.6 °C 14.2 °C
Vittorio Veneto Parco Fenderl (TV) 21/05/18 20.40 20.4 °C 61 % 12.6 °C 1013.1 hPa 0.0 Km/h WNW 0.0 mm  17.4 °C 28.1 °C
Volpago del Montello (TV) 21/05/18 20.30 19.5 °C 66 % 13.0 °C 1011.8 hPa 0.0 Km/h --- 0.0 mm  13.6 °C 25.3 °C
 
(*) = Precipitazioni nelle ultime 24h.
Dati non aggiornati nell'ultima ora.
   
In collaborazione con:
 
Top! Top!